sensor_id;sensor_type;location;lat;lon;timestamp;pressure;altitude;pressure_sealevel;temperature;humidity
6851;BME280;3464;42.728;23.296;2023-11-21T00:01:12;95077.22;;;16.63;42.25
6851;BME280;3464;42.728;23.296;2023-11-21T00:03:39;95073.25;;;16.48;42.35
6851;BME280;3464;42.728;23.296;2023-11-21T00:06:06;95082.56;;;16.49;42.35
6851;BME280;3464;42.728;23.296;2023-11-21T00:08:33;95083.17;;;16.61;42.17
6851;BME280;3464;42.728;23.296;2023-11-21T00:10:59;95080.15;;;16.88;41.76
6851;BME280;3464;42.728;23.296;2023-11-21T00:13:26;95075.09;;;16.87;41.53
6851;BME280;3464;42.728;23.296;2023-11-21T00:15:53;95087.17;;;16.75;41.88
6851;BME280;3464;42.728;23.296;2023-11-21T00:18:20;95078.77;;;16.47;42.40
6851;BME280;3464;42.728;23.296;2023-11-21T00:20:46;95083.51;;;16.43;42.47
6851;BME280;3464;42.728;23.296;2023-11-21T00:23:13;95085.62;;;16.42;42.50
6851;BME280;3464;42.728;23.296;2023-11-21T00:25:39;95075.35;;;16.23;42.70
6851;BME280;3464;42.728;23.296;2023-11-21T00:28:07;95070.92;;;16.34;42.53
6851;BME280;3464;42.728;23.296;2023-11-21T00:30:34;95064.83;;;16.69;42.02
6851;BME280;3464;42.728;23.296;2023-11-21T00:33:00;95071.92;;;16.52;42.41
6851;BME280;3464;42.728;23.296;2023-11-21T00:35:27;95072.12;;;16.38;42.52
6851;BME280;3464;42.728;23.296;2023-11-21T00:37:53;95072.45;;;16.46;42.37
6851;BME280;3464;42.728;23.296;2023-11-21T00:40:20;95074.68;;;16.64;42.19
6851;BME280;3464;42.728;23.296;2023-11-21T00:42:47;95073.30;;;16.69;41.97
6851;BME280;3464;42.728;23.296;2023-11-21T00:45:14;95068.59;;;16.72;41.93
6851;BME280;3464;42.728;23.296;2023-11-21T00:47:41;95071.84;;;16.56;42.09
6851;BME280;3464;42.728;23.296;2023-11-21T00:50:08;95070.52;;;16.82;41.61
6851;BME280;3464;42.728;23.296;2023-11-21T00:52:35;95075.13;;;16.62;41.57
6851;BME280;3464;42.728;23.296;2023-11-21T00:55:02;95064.77;;;16.72;41.52
6851;BME280;3464;42.728;23.296;2023-11-21T00:57:29;95061.89;;;16.68;41.55
6851;BME280;3464;42.728;23.296;2023-11-21T00:59:56;95064.02;;;16.41;41.99
6851;BME280;3464;42.728;23.296;2023-11-21T01:02:22;95066.68;;;16.61;41.63
6851;BME280;3464;42.728;23.296;2023-11-21T01:04:49;95051.22;;;16.49;41.71
6851;BME280;3464;42.728;23.296;2023-11-21T01:07:16;95053.92;;;16.63;41.42
6851;BME280;3464;42.728;23.296;2023-11-21T01:09:42;95051.20;;;16.24;42.13
6851;BME280;3464;42.728;23.296;2023-11-21T01:12:09;95058.37;;;16.25;42.07
6851;BME280;3464;42.728;23.296;2023-11-21T01:14:36;95054.59;;;16.25;42.04
6851;BME280;3464;42.728;23.296;2023-11-21T01:17:03;95057.92;;;16.27;41.91
6851;BME280;3464;42.728;23.296;2023-11-21T01:19:29;95067.16;;;16.31;41.98
6851;BME280;3464;42.728;23.296;2023-11-21T01:21:56;95060.23;;;16.16;42.14
6851;BME280;3464;42.728;23.296;2023-11-21T01:24:23;95064.53;;;15.85;42.85
6851;BME280;3464;42.728;23.296;2023-11-21T01:26:49;95059.31;;;15.93;42.72
6851;BME280;3464;42.728;23.296;2023-11-21T01:29:17;95058.00;;;15.96;42.62
6851;BME280;3464;42.728;23.296;2023-11-21T01:31:43;95054.95;;;16.02;42.44
6851;BME280;3464;42.728;23.296;2023-11-21T01:34:10;95058.59;;;16.12;42.52
6851;BME280;3464;42.728;23.296;2023-11-21T01:36:36;95064.41;;;15.91;42.49
6851;BME280;3464;42.728;23.296;2023-11-21T01:39:03;95071.15;;;15.65;43.01
6851;BME280;3464;42.728;23.296;2023-11-21T01:41:30;95066.08;;;15.31;43.70
6851;BME280;3464;42.728;23.296;2023-11-21T01:43:57;95075.15;;;15.15;43.91
6851;BME280;3464;42.728;23.296;2023-11-21T01:46:23;95066.20;;;15.23;43.69
6851;BME280;3464;42.728;23.296;2023-11-21T01:48:50;95051.77;;;15.61;42.87
6851;BME280;3464;42.728;23.296;2023-11-21T01:51:17;95048.80;;;15.88;41.95
6851;BME280;3464;42.728;23.296;2023-11-21T01:53:44;95052.86;;;15.44;43.03
6851;BME280;3464;42.728;23.296;2023-11-21T01:56:11;95059.57;;;15.46;43.13
6851;BME280;3464;42.728;23.296;2023-11-21T01:58:37;95061.86;;;15.32;43.20
6851;BME280;3464;42.728;23.296;2023-11-21T02:01:04;95062.01;;;15.53;42.82
6851;BME280;3464;42.728;23.296;2023-11-21T02:03:31;95058.87;;;15.32;43.22
6851;BME280;3464;42.728;23.296;2023-11-21T02:05:57;95058.83;;;15.35;43.10
6851;BME280;3464;42.728;23.296;2023-11-21T02:08:24;95057.25;;;15.61;42.48
6851;BME280;3464;42.728;23.296;2023-11-21T02:10:51;95052.64;;;15.57;42.61
6851;BME280;3464;42.728;23.296;2023-11-21T02:13:17;95053.68;;;15.45;42.70
6851;BME280;3464;42.728;23.296;2023-11-21T02:15:44;95054.52;;;15.45;42.73
6851;BME280;3464;42.728;23.296;2023-11-21T02:18:11;95050.80;;;15.36;42.90
6851;BME280;3464;42.728;23.296;2023-11-21T02:20:39;95046.33;;;15.23;43.26
6851;BME280;3464;42.728;23.296;2023-11-21T02:23:05;95050.69;;;15.12;43.28
6851;BME280;3464;42.728;23.296;2023-11-21T02:25:32;95056.52;;;15.20;43.29
6851;BME280;3464;42.728;23.296;2023-11-21T02:28:00;95052.59;;;15.29;43.01
6851;BME280;3464;42.728;23.296;2023-11-21T02:30:29;95045.94;;;15.53;42.64
6851;BME280;3464;42.728;23.296;2023-11-21T02:32:56;95048.28;;;15.34;42.83
6851;BME280;3464;42.728;23.296;2023-11-21T02:35:23;95053.03;;;15.27;42.95
6851;BME280;3464;42.728;23.296;2023-11-21T02:37:50;95042.65;;;15.48;42.58
6851;BME280;3464;42.728;23.296;2023-11-21T02:40:16;95042.55;;;15.53;42.37
6851;BME280;3464;42.728;23.296;2023-11-21T02:42:44;95052.55;;;15.66;42.06
6851;BME280;3464;42.728;23.296;2023-11-21T02:45:10;95043.98;;;15.44;42.28
6851;BME280;3464;42.728;23.296;2023-11-21T02:47:38;95042.38;;;15.32;42.52
6851;BME280;3464;42.728;23.296;2023-11-21T02:50:05;95037.25;;;15.69;41.93
6851;BME280;3464;42.728;23.296;2023-11-21T02:52:32;95037.36;;;15.90;41.43
6851;BME280;3464;42.728;23.296;2023-11-21T02:54:58;95039.25;;;16.06;41.17
6851;BME280;3464;42.728;23.296;2023-11-21T02:57:25;95040.16;;;16.00;41.25
6851;BME280;3464;42.728;23.296;2023-11-21T02:59:52;95046.98;;;15.95;41.29
6851;BME280;3464;42.728;23.296;2023-11-21T03:02:19;95038.00;;;16.04;41.39
6851;BME280;3464;42.728;23.296;2023-11-21T03:04:45;95043.27;;;15.62;42.07
6851;BME280;3464;42.728;23.296;2023-11-21T03:07:12;95045.48;;;15.57;42.23
6851;BME280;3464;42.728;23.296;2023-11-21T03:09:38;95039.16;;;15.55;42.35
6851;BME280;3464;42.728;23.296;2023-11-21T03:12:05;95047.23;;;15.53;42.29
6851;BME280;3464;42.728;23.296;2023-11-21T03:14:32;95051.08;;;15.13;43.03
6851;BME280;3464;42.728;23.296;2023-11-21T03:16:59;95044.14;;;15.29;42.97
6851;BME280;3464;42.728;23.296;2023-11-21T03:19:26;95046.31;;;15.56;42.53
6851;BME280;3464;42.728;23.296;2023-11-21T03:21:53;95047.57;;;15.58;42.44
6851;BME280;3464;42.728;23.296;2023-11-21T03:24:20;95045.79;;;15.63;42.35
6851;BME280;3464;42.728;23.296;2023-11-21T03:26:46;95046.36;;;15.53;42.79
6851;BME280;3464;42.728;23.296;2023-11-21T03:29:13;95047.37;;;15.71;42.60
6851;BME280;3464;42.728;23.296;2023-11-21T03:31:40;95053.56;;;15.81;42.41
6851;BME280;3464;42.728;23.296;2023-11-21T03:34:09;95049.52;;;15.98;42.14
6851;BME280;3464;42.728;23.296;2023-11-21T03:36:33;95040.95;;;16.04;42.11
6851;BME280;3464;42.728;23.296;2023-11-21T03:39:00;95049.86;;;16.01;42.05
6851;BME280;3464;42.728;23.296;2023-11-21T03:41:26;95047.60;;;15.84;42.20
6851;BME280;3464;42.728;23.296;2023-11-21T03:43:53;95039.86;;;15.94;42.11
6851;BME280;3464;42.728;23.296;2023-11-21T03:46:20;95031.83;;;16.19;41.75
6851;BME280;3464;42.728;23.296;2023-11-21T03:48:46;95029.63;;;16.21;41.67
6851;BME280;3464;42.728;23.296;2023-11-21T03:51:13;95022.69;;;16.09;41.91
6851;BME280;3464;42.728;23.296;2023-11-21T03:53:40;95026.05;;;16.09;41.93
6851;BME280;3464;42.728;23.296;2023-11-21T03:56:07;95023.16;;;16.04;41.95
6851;BME280;3464;42.728;23.296;2023-11-21T03:58:34;95028.56;;;16.11;41.77
6851;BME280;3464;42.728;23.296;2023-11-21T04:01:00;95024.22;;;15.92;42.04
6851;BME280;3464;42.728;23.296;2023-11-21T04:03:27;95031.81;;;15.92;42.02
6851;BME280;3464;42.728;23.296;2023-11-21T04:05:54;95029.02;;;15.83;42.21
6851;BME280;3464;42.728;23.296;2023-11-21T04:08:21;95030.26;;;15.84;41.97
6851;BME280;3464;42.728;23.296;2023-11-21T04:10:47;95022.45;;;15.70;42.38
6851;BME280;3464;42.728;23.296;2023-11-21T04:13:16;95016.35;;;15.82;41.97
6851;BME280;3464;42.728;23.296;2023-11-21T04:21:47;95028.33;;;15.72;41.99
6851;BME280;3464;42.728;23.296;2023-11-21T04:24:13;95032.41;;;15.22;42.56
6851;BME280;3464;42.728;23.296;2023-11-21T04:26:40;94960.30;;;14.79;42.69
6851;BME280;3464;42.728;23.296;2023-11-21T04:29:10;95031.73;;;15.41;42.57
6851;BME280;3464;42.728;23.296;2023-11-21T04:31:38;95027.77;;;15.53;42.28
6851;BME280;3464;42.728;23.296;2023-11-21T04:34:07;95025.44;;;15.36;42.47
6851;BME280;3464;42.728;23.296;2023-11-21T04:36:34;95022.90;;;15.39;42.39
6851;BME280;3464;42.728;23.296;2023-11-21T04:39:00;95032.06;;;15.13;42.75
6851;BME280;3464;42.728;23.296;2023-11-21T04:41:27;95022.02;;;15.42;42.36
6851;BME280;3464;42.728;23.296;2023-11-21T04:43:53;95028.61;;;15.20;42.62
6851;BME280;3464;42.728;23.296;2023-11-21T04:46:20;95032.34;;;15.26;42.52
6851;BME280;3464;42.728;23.296;2023-11-21T04:48:47;95026.59;;;15.12;42.77
6851;BME280;3464;42.728;23.296;2023-11-21T04:51:14;95032.30;;;15.29;42.56
6851;BME280;3464;42.728;23.296;2023-11-21T04:53:41;95038.97;;;15.02;42.99
6851;BME280;3464;42.728;23.296;2023-11-21T04:56:08;95033.52;;;15.33;42.45
6851;BME280;3464;42.728;23.296;2023-11-21T04:58:35;95034.05;;;15.24;42.68
6851;BME280;3464;42.728;23.296;2023-11-21T05:01:01;95032.11;;;15.44;42.32
6851;BME280;3464;42.728;23.296;2023-11-21T05:03:29;95039.77;;;15.07;42.94
6851;BME280;3464;42.728;23.296;2023-11-21T05:05:55;95031.14;;;15.53;42.24
6851;BME280;3464;42.728;23.296;2023-11-21T05:08:22;95031.80;;;15.34;42.63
6851;BME280;3464;42.728;23.296;2023-11-21T05:10:48;95030.33;;;15.52;42.37
6851;BME280;3464;42.728;23.296;2023-11-21T05:13:15;95025.30;;;15.77;41.99
6851;BME280;3464;42.728;23.296;2023-11-21T05:15:42;95019.38;;;15.78;41.99
6851;BME280;3464;42.728;23.296;2023-11-21T05:18:08;95007.72;;;15.65;42.05
6851;BME280;3464;42.728;23.296;2023-11-21T05:20:35;95016.61;;;16.16;41.68
6851;BME280;3464;42.728;23.296;2023-11-21T05:23:01;95015.77;;;16.17;41.35
6851;BME280;3464;42.728;23.296;2023-11-21T05:25:28;95023.30;;;15.96;41.77
6851;BME280;3464;42.728;23.296;2023-11-21T05:27:55;95032.07;;;16.04;41.74
6851;BME280;3464;42.728;23.296;2023-11-21T05:30:21;95036.26;;;16.07;41.70
6851;BME280;3464;42.728;23.296;2023-11-21T05:32:48;95038.30;;;15.84;41.98
6851;BME280;3464;42.728;23.296;2023-11-21T05:35:15;95039.52;;;16.14;41.62
6851;BME280;3464;42.728;23.296;2023-11-21T05:37:42;95040.52;;;16.30;41.44
6851;BME280;3464;42.728;23.296;2023-11-21T05:40:09;95038.48;;;16.26;41.39
6851;BME280;3464;42.728;23.296;2023-11-21T05:42:36;95046.53;;;15.99;42.01
6851;BME280;3464;42.728;23.296;2023-11-21T05:45:04;95036.70;;;16.05;41.97
6851;BME280;3464;42.728;23.296;2023-11-21T05:47:41;95040.24;;;16.48;41.47
6851;BME280;3464;42.728;23.296;2023-11-21T05:50:08;95040.45;;;16.59;41.00
6851;BME280;3464;42.728;23.296;2023-11-21T05:52:36;95033.51;;;16.42;41.08
6851;BME280;3464;42.728;23.296;2023-11-21T05:55:04;95035.05;;;16.02;41.57
6851;BME280;3464;42.728;23.296;2023-11-21T06:00:30;95040.73;;;16.16;41.12
6851;BME280;3464;42.728;23.296;2023-11-21T06:02:56;95042.80;;;16.69;40.22
6851;BME280;3464;42.728;23.296;2023-11-21T06:05:23;95044.58;;;16.65;39.64
6851;BME280;3464;42.728;23.296;2023-11-21T06:07:50;95049.45;;;16.27;39.99
6851;BME280;3464;42.728;23.296;2023-11-21T06:10:16;95045.06;;;16.11;40.05
6851;BME280;3464;42.728;23.296;2023-11-21T06:12:43;95050.31;;;16.00;40.67
6851;BME280;3464;42.728;23.296;2023-11-21T06:15:10;95043.59;;;16.94;39.50
6851;BME280;3464;42.728;23.296;2023-11-21T06:17:40;95045.97;;;17.04;39.04
6851;BME280;3464;42.728;23.296;2023-11-21T06:20:07;95046.08;;;16.97;39.17
6851;BME280;3464;42.728;23.296;2023-11-21T06:22:39;95049.25;;;16.87;39.33
6851;BME280;3464;42.728;23.296;2023-11-21T06:25:06;95046.93;;;17.39;38.59
6851;BME280;3464;42.728;23.296;2023-11-21T06:27:33;95053.73;;;17.59;38.25
6851;BME280;3464;42.728;23.296;2023-11-21T06:30:00;95048.75;;;17.12;39.04
6851;BME280;3464;42.728;23.296;2023-11-21T06:32:26;95055.75;;;16.56;39.89
6851;BME280;3464;42.728;23.296;2023-11-21T06:34:54;95059.72;;;16.48;40.26
6851;BME280;3464;42.728;23.296;2023-11-21T06:37:23;95056.92;;;16.62;39.82
6851;BME280;3464;42.728;23.296;2023-11-21T06:39:50;95062.58;;;16.76;40.14
6851;BME280;3464;42.728;23.296;2023-11-21T06:42:17;95062.20;;;17.18;39.46
6851;BME280;3464;42.728;23.296;2023-11-21T06:44:43;95072.52;;;17.11;39.74
6851;BME280;3464;42.728;23.296;2023-11-21T06:47:10;95061.92;;;17.54;38.99
6851;BME280;3464;42.728;23.296;2023-11-21T06:49:36;95064.69;;;17.61;38.89
6851;BME280;3464;42.728;23.296;2023-11-21T06:52:03;95062.50;;;17.65;38.80
6851;BME280;3464;42.728;23.296;2023-11-21T06:54:30;95068.38;;;17.68;38.58
6851;BME280;3464;42.728;23.296;2023-11-21T06:56:57;95061.32;;;18.16;38.18
6851;BME280;3464;42.728;23.296;2023-11-21T06:59:24;95064.98;;;17.87;38.44
6851;BME280;3464;42.728;23.296;2023-11-21T07:01:51;95067.78;;;18.80;37.58
6851;BME280;3464;42.728;23.296;2023-11-21T07:04:18;95062.27;;;19.28;36.59
6851;BME280;3464;42.728;23.296;2023-11-21T07:06:44;95064.78;;;19.13;36.71
6851;BME280;3464;42.728;23.296;2023-11-21T07:09:12;95065.04;;;18.71;37.12
6851;BME280;3464;42.728;23.296;2023-11-21T07:11:39;95060.81;;;19.03;36.89
6851;BME280;3464;42.728;23.296;2023-11-21T07:14:06;95058.82;;;18.81;37.18
6851;BME280;3464;42.728;23.296;2023-11-21T07:16:35;95050.14;;;19.04;37.02
6851;BME280;3464;42.728;23.296;2023-11-21T07:19:01;95054.75;;;18.42;37.72
6851;BME280;3464;42.728;23.296;2023-11-21T07:21:28;95050.44;;;18.77;37.46
6851;BME280;3464;42.728;23.296;2023-11-21T07:23:55;95054.59;;;18.13;38.26
6851;BME280;3464;42.728;23.296;2023-11-21T07:26:22;95056.49;;;17.87;38.61
6851;BME280;3464;42.728;23.296;2023-11-21T07:28:48;95060.45;;;17.80;39.08
6851;BME280;3464;42.728;23.296;2023-11-21T07:31:15;95058.27;;;18.36;38.48
6851;BME280;3464;42.728;23.296;2023-11-21T07:33:42;95061.17;;;18.74;37.92
6851;BME280;3464;42.728;23.296;2023-11-21T07:36:09;95073.00;;;18.59;38.01
6851;BME280;3464;42.728;23.296;2023-11-21T07:38:37;95066.34;;;18.55;37.93
6851;BME280;3464;42.728;23.296;2023-11-21T07:41:04;95064.88;;;18.45;38.32
6851;BME280;3464;42.728;23.296;2023-11-21T07:43:30;95059.05;;;18.89;37.83
6851;BME280;3464;42.728;23.296;2023-11-21T07:45:57;95053.77;;;18.30;38.45
6851;BME280;3464;42.728;23.296;2023-11-21T07:48:24;95051.55;;;17.61;39.63
6851;BME280;3464;42.728;23.296;2023-11-21T07:50:50;95052.79;;;18.18;38.79
6851;BME280;3464;42.728;23.296;2023-11-21T07:53:17;95055.75;;;18.37;38.76
6851;BME280;3464;42.728;23.296;2023-11-21T07:55:43;95042.53;;;18.20;38.83
6851;BME280;3464;42.728;23.296;2023-11-21T07:58:10;95042.48;;;18.56;38.60
6851;BME280;3464;42.728;23.296;2023-11-21T08:00:37;95041.74;;;18.53;38.42
6851;BME280;3464;42.728;23.296;2023-11-21T08:03:03;95038.48;;;18.29;38.86
6851;BME280;3464;42.728;23.296;2023-11-21T08:05:30;95034.80;;;18.58;38.47
6851;BME280;3464;42.728;23.296;2023-11-21T08:07:57;95035.23;;;18.89;38.05
6851;BME280;3464;42.728;23.296;2023-11-21T08:10:24;95026.84;;;19.15;37.86
6851;BME280;3464;42.728;23.296;2023-11-21T08:12:50;95032.44;;;18.51;38.79
6851;BME280;3464;42.728;23.296;2023-11-21T08:15:17;95025.05;;;19.04;38.25
6851;BME280;3464;42.728;23.296;2023-11-21T08:17:44;95035.95;;;19.69;37.42
6851;BME280;3464;42.728;23.296;2023-11-21T08:20:11;95019.55;;;20.91;35.72
6851;BME280;3464;42.728;23.296;2023-11-21T08:22:37;95024.64;;;20.81;35.44
6851;BME280;3464;42.728;23.296;2023-11-21T08:25:05;95026.67;;;21.20;35.50
6851;BME280;3464;42.728;23.296;2023-11-21T08:27:32;95036.01;;;21.32;35.39
6851;BME280;3464;42.728;23.296;2023-11-21T08:29:59;95023.83;;;20.43;35.98
6851;BME280;3464;42.728;23.296;2023-11-21T08:32:25;95042.36;;;20.23;36.50
6851;BME280;3464;42.728;23.296;2023-11-21T08:34:52;95018.66;;;21.29;35.31
6851;BME280;3464;42.728;23.296;2023-11-21T08:37:18;95031.22;;;20.87;36.04
6851;BME280;3464;42.728;23.296;2023-11-21T08:39:47;95028.39;;;21.19;35.64
6851;BME280;3464;42.728;23.296;2023-11-21T08:42:12;95026.55;;;21.80;34.49
6851;BME280;3464;42.728;23.296;2023-11-21T08:44:39;95031.33;;;22.21;34.34
6851;BME280;3464;42.728;23.296;2023-11-21T08:47:06;95018.92;;;22.63;33.76
6851;BME280;3464;42.728;23.296;2023-11-21T08:49:32;95022.08;;;22.07;34.12
6851;BME280;3464;42.728;23.296;2023-11-21T08:51:59;95006.98;;;22.62;33.73
6851;BME280;3464;42.728;23.296;2023-11-21T08:57:35;95002.08;;;22.05;34.73
6851;BME280;3464;42.728;23.296;2023-11-21T09:00:02;94995.46;;;22.91;33.83
6851;BME280;3464;42.728;23.296;2023-11-21T09:02:28;94994.53;;;22.53;33.78
6851;BME280;3464;42.728;23.296;2023-11-21T09:04:54;94980.59;;;23.18;33.20
6851;BME280;3464;42.728;23.296;2023-11-21T09:07:21;94978.69;;;23.03;33.74
6851;BME280;3464;42.728;23.296;2023-11-21T09:09:48;94971.59;;;23.55;32.93
6851;BME280;3464;42.728;23.296;2023-11-21T09:12:15;94964.36;;;22.59;33.31
6851;BME280;3464;42.728;23.296;2023-11-21T09:14:42;94953.98;;;22.52;33.97
6851;BME280;3464;42.728;23.296;2023-11-21T09:17:09;94951.10;;;22.48;34.07
6851;BME280;3464;42.728;23.296;2023-11-21T09:19:34;94943.88;;;22.68;33.94
6851;BME280;3464;42.728;23.296;2023-11-21T09:22:01;94939.92;;;22.61;33.95
6851;BME280;3464;42.728;23.296;2023-11-21T09:24:28;94934.59;;;23.22;33.46
6851;BME280;3464;42.728;23.296;2023-11-21T09:26:54;94926.19;;;23.10;33.13
6851;BME280;3464;42.728;23.296;2023-11-21T09:29:22;94918.51;;;22.90;33.40
6851;BME280;3464;42.728;23.296;2023-11-21T09:31:50;94912.47;;;22.72;33.29
6851;BME280;3464;42.728;23.296;2023-11-21T09:34:17;94909.84;;;22.33;33.68
6851;BME280;3464;42.728;23.296;2023-11-21T09:36:45;94909.84;;;21.83;34.24
6851;BME280;3464;42.728;23.296;2023-11-21T09:39:11;94904.07;;;21.98;34.14
6851;BME280;3464;42.728;23.296;2023-11-21T09:41:49;94904.75;;;22.53;33.65
6851;BME280;3464;42.728;23.296;2023-11-21T09:44:18;94890.78;;;22.88;33.40
6851;BME280;3464;42.728;23.296;2023-11-21T09:46:44;94876.64;;;23.35;33.01
6851;BME280;3464;42.728;23.296;2023-11-21T09:49:11;94862.95;;;23.53;32.66
6851;BME280;3464;42.728;23.296;2023-11-21T09:51:42;94856.42;;;23.90;32.04
6851;BME280;3464;42.728;23.296;2023-11-21T09:54:06;94843.95;;;23.81;31.90
6851;BME280;3464;42.728;23.296;2023-11-21T09:56:33;94848.41;;;23.35;32.33
6851;BME280;3464;42.728;23.296;2023-11-21T09:58:59;94843.55;;;24.08;31.96
6851;BME280;3464;42.728;23.296;2023-11-21T10:01:26;94844.22;;;24.11;31.79
6851;BME280;3464;42.728;23.296;2023-11-21T10:03:53;94843.41;;;24.92;30.77
6851;BME280;3464;42.728;23.296;2023-11-21T10:06:20;94850.01;;;25.36;30.44
6851;BME280;3464;42.728;23.296;2023-11-21T10:08:46;94841.63;;;25.55;30.34
6851;BME280;3464;42.728;23.296;2023-11-21T10:11:13;94838.33;;;25.75;29.79
6851;BME280;3464;42.728;23.296;2023-11-21T10:13:40;94844.08;;;25.72;30.26
6851;BME280;3464;42.728;23.296;2023-11-21T10:16:07;94838.91;;;25.95;29.50
6851;BME280;3464;42.728;23.296;2023-11-21T10:18:33;94834.03;;;26.05;29.02
6851;BME280;3464;42.728;23.296;2023-11-21T10:21:00;94825.90;;;25.97;29.79
6851;BME280;3464;42.728;23.296;2023-11-21T10:23:27;94816.25;;;26.08;29.28
6851;BME280;3464;42.728;23.296;2023-11-21T10:25:53;94815.80;;;26.01;29.12
6851;BME280;3464;42.728;23.296;2023-11-21T10:28:20;94811.11;;;25.41;29.83
6851;BME280;3464;42.728;23.296;2023-11-21T10:30:46;94817.55;;;25.33;29.93
6851;BME280;3464;42.728;23.296;2023-11-21T10:33:13;94806.28;;;25.04;30.27
6851;BME280;3464;42.728;23.296;2023-11-21T10:35:49;94810.25;;;24.78;30.25
6851;BME280;3464;42.728;23.296;2023-11-21T10:38:17;94804.86;;;25.29;30.01
6851;BME280;3464;42.728;23.296;2023-11-21T10:40:44;94795.14;;;25.57;29.85
6851;BME280;3464;42.728;23.296;2023-11-21T10:43:12;94789.34;;;25.97;29.32
6851;BME280;3464;42.728;23.296;2023-11-21T10:45:39;94796.30;;;25.81;29.28
6851;BME280;3464;42.728;23.296;2023-11-21T10:48:06;94799.00;;;25.11;30.51
6851;BME280;3464;42.728;23.296;2023-11-21T10:50:33;94792.35;;;25.68;29.71
6851;BME280;3464;42.728;23.296;2023-11-21T10:53:00;94774.71;;;25.76;29.26
6851;BME280;3464;42.728;23.296;2023-11-21T10:55:25;94783.69;;;25.32;30.04
6851;BME280;3464;42.728;23.296;2023-11-21T10:57:53;94780.96;;;25.87;29.80
6851;BME280;3464;42.728;23.296;2023-11-21T11:00:20;94769.79;;;26.09;29.40
6851;BME280;3464;42.728;23.296;2023-11-21T11:02:51;94767.01;;;26.40;29.29
6851;BME280;3464;42.728;23.296;2023-11-21T11:05:19;94766.84;;;26.22;28.93
6851;BME280;3464;42.728;23.296;2023-11-21T11:07:44;94764.42;;;25.98;29.43
6851;BME280;3464;42.728;23.296;2023-11-21T11:10:11;94762.32;;;26.04;29.85
6851;BME280;3464;42.728;23.296;2023-11-21T11:12:38;94755.00;;;25.97;29.40
6851;BME280;3464;42.728;23.296;2023-11-21T11:15:05;94752.62;;;25.93;29.82
6851;BME280;3464;42.728;23.296;2023-11-21T11:17:32;94746.78;;;25.97;30.20
6851;BME280;3464;42.728;23.296;2023-11-21T11:19:59;94740.66;;;26.14;29.65
6851;BME280;3464;42.728;23.296;2023-11-21T11:22:36;94746.42;;;26.04;29.75
6851;BME280;3464;42.728;23.296;2023-11-21T11:27:48;94737.19;;;26.49;28.98
6851;BME280;3464;42.728;23.296;2023-11-21T11:30:24;94732.08;;;26.06;29.33
6851;BME280;3464;42.728;23.296;2023-11-21T11:32:58;94726.97;;;25.17;30.00
6851;BME280;3464;42.728;23.296;2023-11-21T11:35:26;94728.99;;;24.97;30.31
6851;BME280;3464;42.728;23.296;2023-11-21T11:37:51;94724.00;;;25.61;29.77
6851;BME280;3464;42.728;23.296;2023-11-21T11:40:17;94732.98;;;25.09;30.13
6851;BME280;3464;42.728;23.296;2023-11-21T11:43:01;94737.30;;;24.23;30.91
6851;BME280;3464;42.728;23.296;2023-11-21T11:45:32;94739.83;;;23.99;31.51
6851;BME280;3464;42.728;23.296;2023-11-21T11:48:00;94738.98;;;23.57;32.16
6851;BME280;3464;42.728;23.296;2023-11-21T11:50:26;94751.16;;;23.96;32.50
6851;BME280;3464;42.728;23.296;2023-11-21T11:52:53;94753.48;;;23.05;33.67
6851;BME280;3464;42.728;23.296;2023-11-21T11:55:21;94749.49;;;23.35;33.67
6851;BME280;3464;42.728;23.296;2023-11-21T11:57:49;94742.42;;;22.86;34.36
6851;BME280;3464;42.728;23.296;2023-11-21T12:00:18;94736.05;;;22.95;34.47
6851;BME280;3464;42.728;23.296;2023-11-21T12:02:48;94738.20;;;22.48;34.81
6851;BME280;3464;42.728;23.296;2023-11-21T12:05:15;94745.73;;;22.71;34.83
6851;BME280;3464;42.728;23.296;2023-11-21T12:07:45;94754.77;;;22.32;35.49
6851;BME280;3464;42.728;23.296;2023-11-21T12:10:16;94749.30;;;22.02;36.43
6851;BME280;3464;42.728;23.296;2023-11-21T12:12:43;94751.39;;;22.31;36.86
6851;BME280;3464;42.728;23.296;2023-11-21T12:15:09;94752.95;;;21.46;38.49
6851;BME280;3464;42.728;23.296;2023-11-21T12:17:36;94745.31;;;21.85;38.50
6851;BME280;3464;42.728;23.296;2023-11-21T12:20:03;94743.47;;;22.27;37.88
6851;BME280;3464;42.728;23.296;2023-11-21T12:22:29;94733.09;;;22.58;37.82
6851;BME280;3464;42.728;23.296;2023-11-21T12:24:55;94730.41;;;22.87;36.92
6851;BME280;3464;42.728;23.296;2023-11-21T12:27:22;94728.13;;;22.81;37.12
6851;BME280;3464;42.728;23.296;2023-11-21T12:29:49;94724.52;;;23.20;37.02
6851;BME280;3464;42.728;23.296;2023-11-21T12:32:15;94727.31;;;21.87;38.80
6851;BME280;3464;42.728;23.296;2023-11-21T12:34:42;94737.95;;;21.07;40.12
6851;BME280;3464;42.728;23.296;2023-11-21T12:37:09;94730.78;;;21.86;39.45
6851;BME280;3464;42.728;23.296;2023-11-21T12:39:35;94727.59;;;21.91;39.63
6851;BME280;3464;42.728;23.296;2023-11-21T12:42:02;94727.42;;;21.84;39.31
6851;BME280;3464;42.728;23.296;2023-11-21T12:44:29;94721.55;;;22.11;39.22
6851;BME280;3464;42.728;23.296;2023-11-21T12:46:58;94715.71;;;22.64;38.55
6851;BME280;3464;42.728;23.296;2023-11-21T12:49:25;94706.76;;;22.99;37.79
6851;BME280;3464;42.728;23.296;2023-11-21T12:51:51;94708.81;;;23.09;37.46
6851;BME280;3464;42.728;23.296;2023-11-21T12:54:18;94706.54;;;23.20;37.55
6851;BME280;3464;42.728;23.296;2023-11-21T12:56:45;94703.11;;;23.38;37.49
6851;BME280;3464;42.728;23.296;2023-11-21T12:59:14;94699.81;;;23.44;37.55
6851;BME280;3464;42.728;23.296;2023-11-21T13:01:42;94691.98;;;23.12;38.03
6851;BME280;3464;42.728;23.296;2023-11-21T13:04:08;94689.70;;;23.33;37.67
6851;BME280;3464;42.728;23.296;2023-11-21T13:06:36;94684.36;;;22.84;38.43
6851;BME280;3464;42.728;23.296;2023-11-21T13:09:11;94686.78;;;22.52;38.79
6851;BME280;3464;42.728;23.296;2023-11-21T13:11:59;94684.36;;;22.02;39.90
6851;BME280;3464;42.728;23.296;2023-11-21T13:14:20;94694.25;;;21.81;40.61
6851;BME280;3464;42.728;23.296;2023-11-21T13:16:46;94691.20;;;21.63;40.64
6851;BME280;3464;42.728;23.296;2023-11-21T13:19:13;94694.61;;;21.72;40.35
6851;BME280;3464;42.728;23.296;2023-11-21T13:21:39;94683.69;;;21.88;40.13
6851;BME280;3464;42.728;23.296;2023-11-21T13:24:06;94680.78;;;22.14;39.92